sensor_id;sensor_type;location;lat;lon;timestamp;temperature;humidity
55771;DHT22;41687;-33.234;-60.334;2023-04-01T00:00:58;17.40;53.40
55771;DHT22;41687;-33.234;-60.334;2023-04-01T00:03:27;17.30;53.60
55771;DHT22;41687;-33.234;-60.334;2023-04-01T00:05:56;17.30;53.60
55771;DHT22;41687;-33.234;-60.334;2023-04-01T00:08:26;17.30;53.90
55771;DHT22;41687;-33.234;-60.334;2023-04-01T00:10:53;17.20;54.30
55771;DHT22;41687;-33.234;-60.334;2023-04-01T00:13:21;17.20;54.30
55771;DHT22;41687;-33.234;-60.334;2023-04-01T00:15:49;17.10;54.70
55771;DHT22;41687;-33.234;-60.334;2023-04-01T00:18:17;17.10;54.70
55771;DHT22;41687;-33.234;-60.334;2023-04-01T00:20:46;17.10;54.50
55771;DHT22;41687;-33.234;-60.334;2023-04-01T00:23:15;17.10;54.80
55771;DHT22;41687;-33.234;-60.334;2023-04-01T00:25:43;17.10;54.80
55771;DHT22;41687;-33.234;-60.334;2023-04-01T00:28:11;17.00;54.80
55771;DHT22;41687;-33.234;-60.334;2023-04-01T00:30:39;16.90;55.00
55771;DHT22;41687;-33.234;-60.334;2023-04-01T00:33:06;16.90;55.50
55771;DHT22;41687;-33.234;-60.334;2023-04-01T00:35:34;16.80;55.80
55771;DHT22;41687;-33.234;-60.334;2023-04-01T00:38:03;16.70;56.10
55771;DHT22;41687;-33.234;-60.334;2023-04-01T00:40:39;16.60;56.40
55771;DHT22;41687;-33.234;-60.334;2023-04-01T00:43:14;16.50;56.70
55771;DHT22;41687;-33.234;-60.334;2023-04-01T00:45:45;16.60;56.30
55771;DHT22;41687;-33.234;-60.334;2023-04-01T00:48:24;16.50;56.70
55771;DHT22;41687;-33.234;-60.334;2023-04-01T00:51:00;16.50;57.80
55771;DHT22;41687;-33.234;-60.334;2023-04-01T00:53:30;16.40;57.90
55771;DHT22;41687;-33.234;-60.334;2023-04-01T00:56:14;16.30;57.90
55771;DHT22;41687;-33.234;-60.334;2023-04-01T00:58:50;16.30;58.80
55771;DHT22;41687;-33.234;-60.334;2023-04-01T01:01:21;16.20;58.70
55771;DHT22;41687;-33.234;-60.334;2023-04-01T01:03:50;16.20;58.00
55771;DHT22;41687;-33.234;-60.334;2023-04-01T01:11:26;16.10;58.40
55771;DHT22;41687;-33.234;-60.334;2023-04-01T01:14:08;16.20;58.60
55771;DHT22;41687;-33.234;-60.334;2023-04-01T01:16:45;16.20;58.70
55771;DHT22;41687;-33.234;-60.334;2023-04-01T01:19:46;16.20;58.80
55771;DHT22;41687;-33.234;-60.334;2023-04-01T01:36:37;15.90;59.70
55771;DHT22;41687;-33.234;-60.334;2023-04-01T01:39:09;15.80;59.00
55771;DHT22;41687;-33.234;-60.334;2023-04-01T01:41:39;15.80;59.20
55771;DHT22;41687;-33.234;-60.334;2023-04-01T01:44:09;15.80;59.00
55771;DHT22;41687;-33.234;-60.334;2023-04-01T01:46:40;15.80;58.90
55771;DHT22;41687;-33.234;-60.334;2023-04-01T01:49:10;15.70;59.20
55771;DHT22;41687;-33.234;-60.334;2023-04-01T01:51:39;15.70;59.20
55771;DHT22;41687;-33.234;-60.334;2023-04-01T01:54:16;15.60;59.30
55771;DHT22;41687;-33.234;-60.334;2023-04-01T01:56:48;15.70;59.50
55771;DHT22;41687;-33.234;-60.334;2023-04-01T01:59:19;15.70;59.30
55771;DHT22;41687;-33.234;-60.334;2023-04-01T02:01:51;15.70;59.20
55771;DHT22;41687;-33.234;-60.334;2023-04-01T02:04:21;15.70;59.50
55771;DHT22;41687;-33.234;-60.334;2023-04-01T02:06:59;15.70;60.10
55771;DHT22;41687;-33.234;-60.334;2023-04-01T02:09:28;15.70;60.00
55771;DHT22;41687;-33.234;-60.334;2023-04-01T02:12:03;15.60;59.60
55771;DHT22;41687;-33.234;-60.334;2023-04-01T02:14:58;15.60;60.20
55771;DHT22;41687;-33.234;-60.334;2023-04-01T02:17:30;15.60;60.90
55771;DHT22;41687;-33.234;-60.334;2023-04-01T02:20:09;15.50;60.30
55771;DHT22;41687;-33.234;-60.334;2023-04-01T02:22:43;15.50;60.80
55771;DHT22;41687;-33.234;-60.334;2023-04-01T02:25:18;15.50;60.60
55771;DHT22;41687;-33.234;-60.334;2023-04-01T02:27:47;15.50;60.70
55771;DHT22;41687;-33.234;-60.334;2023-04-01T02:30:16;15.40;60.80
55771;DHT22;41687;-33.234;-60.334;2023-04-01T02:32:45;15.40;61.00
55771;DHT22;41687;-33.234;-60.334;2023-04-01T02:35:15;15.30;60.90
55771;DHT22;41687;-33.234;-60.334;2023-04-01T02:37:45;15.30;61.10
55771;DHT22;41687;-33.234;-60.334;2023-04-01T02:40:17;15.10;61.50
55771;DHT22;41687;-33.234;-60.334;2023-04-01T02:42:44;15.00;61.40
55771;DHT22;41687;-33.234;-60.334;2023-04-01T02:45:13;15.10;61.60
55771;DHT22;41687;-33.234;-60.334;2023-04-01T02:47:41;15.00;61.80
55771;DHT22;41687;-33.234;-60.334;2023-04-01T02:50:10;15.00;61.50
55771;DHT22;41687;-33.234;-60.334;2023-04-01T02:52:37;14.90;61.90
55771;DHT22;41687;-33.234;-60.334;2023-04-01T02:55:06;14.90;62.00
55771;DHT22;41687;-33.234;-60.334;2023-04-01T02:57:34;14.80;61.70
55771;DHT22;41687;-33.234;-60.334;2023-04-01T03:00:02;14.80;61.70
55771;DHT22;41687;-33.234;-60.334;2023-04-01T03:02:30;14.80;61.30
55771;DHT22;41687;-33.234;-60.334;2023-04-01T03:04:58;14.90;61.40
55771;DHT22;41687;-33.234;-60.334;2023-04-01T03:07:25;14.80;62.10
55771;DHT22;41687;-33.234;-60.334;2023-04-01T03:09:53;14.80;61.90
55771;DHT22;41687;-33.234;-60.334;2023-04-01T03:12:21;14.80;61.90
55771;DHT22;41687;-33.234;-60.334;2023-04-01T03:14:51;14.70;61.90
55771;DHT22;41687;-33.234;-60.334;2023-04-01T03:17:19;14.70;61.90
55771;DHT22;41687;-33.234;-60.334;2023-04-01T03:19:47;14.70;61.80
55771;DHT22;41687;-33.234;-60.334;2023-04-01T03:22:14;14.70;61.90
55771;DHT22;41687;-33.234;-60.334;2023-04-01T03:24:43;14.70;62.00
55771;DHT22;41687;-33.234;-60.334;2023-04-01T03:27:12;14.60;62.30
55771;DHT22;41687;-33.234;-60.334;2023-04-01T03:29:39;14.50;62.50
55771;DHT22;41687;-33.234;-60.334;2023-04-01T03:32:08;14.50;62.90
55771;DHT22;41687;-33.234;-60.334;2023-04-01T03:34:36;14.40;63.10
55771;DHT22;41687;-33.234;-60.334;2023-04-01T03:37:04;14.30;63.10
55771;DHT22;41687;-33.234;-60.334;2023-04-01T03:39:32;14.30;63.30
55771;DHT22;41687;-33.234;-60.334;2023-04-01T03:42:00;14.20;63.50
55771;DHT22;41687;-33.234;-60.334;2023-04-01T03:44:31;14.20;63.60
55771;DHT22;41687;-33.234;-60.334;2023-04-01T03:47:00;14.10;63.90
55771;DHT22;41687;-33.234;-60.334;2023-04-01T03:49:28;14.20;63.40
55771;DHT22;41687;-33.234;-60.334;2023-04-01T03:51:56;14.20;63.40
55771;DHT22;41687;-33.234;-60.334;2023-04-01T03:54:23;14.20;63.70
55771;DHT22;41687;-33.234;-60.334;2023-04-01T03:56:51;14.00;63.90
55771;DHT22;41687;-33.234;-60.334;2023-04-01T03:59:20;14.00;64.20
55771;DHT22;41687;-33.234;-60.334;2023-04-01T04:01:48;14.00;64.00
55771;DHT22;41687;-33.234;-60.334;2023-04-01T04:04:16;14.00;64.10
55771;DHT22;41687;-33.234;-60.334;2023-04-01T04:06:45;14.00;63.70
55771;DHT22;41687;-33.234;-60.334;2023-04-01T04:09:12;13.90;64.20
55771;DHT22;41687;-33.234;-60.334;2023-04-01T04:11:41;13.80;64.70
55771;DHT22;41687;-33.234;-60.334;2023-04-01T04:14:09;13.90;64.60
55771;DHT22;41687;-33.234;-60.334;2023-04-01T04:16:37;13.80;64.60
55771;DHT22;41687;-33.234;-60.334;2023-04-01T04:19:07;13.80;64.50
55771;DHT22;41687;-33.234;-60.334;2023-04-01T04:21:35;13.80;65.10
55771;DHT22;41687;-33.234;-60.334;2023-04-01T04:24:03;13.80;64.50
55771;DHT22;41687;-33.234;-60.334;2023-04-01T04:26:51;13.80;64.60
55771;DHT22;41687;-33.234;-60.334;2023-04-01T04:29:18;13.70;64.60
55771;DHT22;41687;-33.234;-60.334;2023-04-01T04:31:46;13.70;64.70
55771;DHT22;41687;-33.234;-60.334;2023-04-01T04:34:14;13.70;64.80
55771;DHT22;41687;-33.234;-60.334;2023-04-01T04:36:42;13.60;65.00
55771;DHT22;41687;-33.234;-60.334;2023-04-01T04:39:10;13.50;64.90
55771;DHT22;41687;-33.234;-60.334;2023-04-01T04:41:39;13.50;65.10
55771;DHT22;41687;-33.234;-60.334;2023-04-01T04:44:08;13.50;64.90
55771;DHT22;41687;-33.234;-60.334;2023-04-01T04:46:35;13.50;65.20
55771;DHT22;41687;-33.234;-60.334;2023-04-01T04:49:12;13.50;64.70
55771;DHT22;41687;-33.234;-60.334;2023-04-01T04:51:40;13.60;64.30
55771;DHT22;41687;-33.234;-60.334;2023-04-01T04:54:08;13.60;64.10
55771;DHT22;41687;-33.234;-60.334;2023-04-01T04:56:54;13.50;64.40
55771;DHT22;41687;-33.234;-60.334;2023-04-01T04:59:25;13.50;64.40
55771;DHT22;41687;-33.234;-60.334;2023-04-01T05:02:07;13.40;64.40
55771;DHT22;41687;-33.234;-60.334;2023-04-01T05:04:36;13.50;64.20
55771;DHT22;41687;-33.234;-60.334;2023-04-01T05:07:05;13.50;64.10
55771;DHT22;41687;-33.234;-60.334;2023-04-01T05:09:34;13.50;64.10
55771;DHT22;41687;-33.234;-60.334;2023-04-01T05:12:02;13.30;64.30
55771;DHT22;41687;-33.234;-60.334;2023-04-01T05:14:46;13.40;63.70
55771;DHT22;41687;-33.234;-60.334;2023-04-01T05:17:13;13.30;63.90
55771;DHT22;41687;-33.234;-60.334;2023-04-01T05:19:41;13.30;64.00
55771;DHT22;41687;-33.234;-60.334;2023-04-01T05:22:09;13.20;63.80
55771;DHT22;41687;-33.234;-60.334;2023-04-01T05:24:37;13.20;64.00
55771;DHT22;41687;-33.234;-60.334;2023-04-01T05:27:05;13.20;64.10
55771;DHT22;41687;-33.234;-60.334;2023-04-01T05:29:33;13.20;64.00
55771;DHT22;41687;-33.234;-60.334;2023-04-01T05:32:06;13.10;64.00
55771;DHT22;41687;-33.234;-60.334;2023-04-01T05:34:34;13.10;64.00
55771;DHT22;41687;-33.234;-60.334;2023-04-01T05:37:02;13.10;64.00
55771;DHT22;41687;-33.234;-60.334;2023-04-01T05:39:30;13.10;64.20
55771;DHT22;41687;-33.234;-60.334;2023-04-01T05:41:58;13.00;64.30
55771;DHT22;41687;-33.234;-60.334;2023-04-01T05:44:25;13.00;64.00
55771;DHT22;41687;-33.234;-60.334;2023-04-01T05:47:07;13.00;64.40
55771;DHT22;41687;-33.234;-60.334;2023-04-01T05:49:36;13.00;64.60
55771;DHT22;41687;-33.234;-60.334;2023-04-01T05:52:04;12.80;64.80
55771;DHT22;41687;-33.234;-60.334;2023-04-01T05:54:35;12.80;64.80
55771;DHT22;41687;-33.234;-60.334;2023-04-01T05:57:02;12.80;64.90
55771;DHT22;41687;-33.234;-60.334;2023-04-01T05:59:30;12.70;64.60
55771;DHT22;41687;-33.234;-60.334;2023-04-01T06:02:01;12.70;64.80
55771;DHT22;41687;-33.234;-60.334;2023-04-01T06:04:34;12.70;64.70
55771;DHT22;41687;-33.234;-60.334;2023-04-01T06:07:15;12.60;65.00
55771;DHT22;41687;-33.234;-60.334;2023-04-01T06:09:44;12.60;65.30
55771;DHT22;41687;-33.234;-60.334;2023-04-01T06:21:37;12.50;64.80
55771;DHT22;41687;-33.234;-60.334;2023-04-01T06:27:19;12.50;64.80
55771;DHT22;41687;-33.234;-60.334;2023-04-01T06:41:36;12.50;65.00
55771;DHT22;41687;-33.234;-60.334;2023-04-01T06:53:36;12.40;64.80
55771;DHT22;41687;-33.234;-60.334;2023-04-01T06:56:37;12.30;65.20
55771;DHT22;41687;-33.234;-60.334;2023-04-01T06:59:22;12.30;64.60
55771;DHT22;41687;-33.234;-60.334;2023-04-01T07:01:53;12.30;64.50
55771;DHT22;41687;-33.234;-60.334;2023-04-01T07:04:32;12.20;64.30
55771;DHT22;41687;-33.234;-60.334;2023-04-01T07:07:19;12.20;64.60
55771;DHT22;41687;-33.234;-60.334;2023-04-01T07:09:58;12.20;65.30
55771;DHT22;41687;-33.234;-60.334;2023-04-01T07:12:48;12.20;64.60
55771;DHT22;41687;-33.234;-60.334;2023-04-01T07:15:40;12.10;65.10
55771;DHT22;41687;-33.234;-60.334;2023-04-01T07:18:21;12.00;65.10
55771;DHT22;41687;-33.234;-60.334;2023-04-01T07:20:50;12.00;65.40
55771;DHT22;41687;-33.234;-60.334;2023-04-01T07:23:28;12.00;64.90
55771;DHT22;41687;-33.234;-60.334;2023-04-01T07:26:24;11.90;65.50
55771;DHT22;41687;-33.234;-60.334;2023-04-01T07:29:12;11.80;65.40
55771;DHT22;41687;-33.234;-60.334;2023-04-01T07:35:01;11.80;65.40
55771;DHT22;41687;-33.234;-60.334;2023-04-01T07:43:12;11.90;64.90
55771;DHT22;41687;-33.234;-60.334;2023-04-01T07:46:33;11.90;64.50
55771;DHT22;41687;-33.234;-60.334;2023-04-01T07:49:36;11.90;65.30
55771;DHT22;41687;-33.234;-60.334;2023-04-01T07:52:24;11.90;64.60
55771;DHT22;41687;-33.234;-60.334;2023-04-01T07:55:14;11.90;64.20
55771;DHT22;41687;-33.234;-60.334;2023-04-01T07:58:02;11.80;64.70
55771;DHT22;41687;-33.234;-60.334;2023-04-01T08:00:55;11.80;64.50
55771;DHT22;41687;-33.234;-60.334;2023-04-01T08:03:50;11.80;65.30
55771;DHT22;41687;-33.234;-60.334;2023-04-01T08:06:40;11.70;64.90
55771;DHT22;41687;-33.234;-60.334;2023-04-01T08:21:54;11.50;65.90
55771;DHT22;41687;-33.234;-60.334;2023-04-01T08:27:06;11.50;65.30
55771;DHT22;41687;-33.234;-60.334;2023-04-01T08:29:42;11.50;65.20
55771;DHT22;41687;-33.234;-60.334;2023-04-01T08:32:22;11.40;65.10
55771;DHT22;41687;-33.234;-60.334;2023-04-01T08:34:58;11.40;65.10
55771;DHT22;41687;-33.234;-60.334;2023-04-01T08:37:38;11.40;65.20
55771;DHT22;41687;-33.234;-60.334;2023-04-01T08:51:45;11.50;65.00
55771;DHT22;41687;-33.234;-60.334;2023-04-01T09:00:25;11.40;65.20
55771;DHT22;41687;-33.234;-60.334;2023-04-01T09:03:23;11.50;66.20
55771;DHT22;41687;-33.234;-60.334;2023-04-01T09:06:21;11.40;65.50
55771;DHT22;41687;-33.234;-60.334;2023-04-01T09:26:51;11.10;66.90
55771;DHT22;41687;-33.234;-60.334;2023-04-01T09:38:06;11.10;66.80
55771;DHT22;41687;-33.234;-60.334;2023-04-01T09:41:00;11.00;66.50
55771;DHT22;41687;-33.234;-60.334;2023-04-01T09:44:04;11.00;66.80
55771;DHT22;41687;-33.234;-60.334;2023-04-01T09:57:48;11.10;66.10
55771;DHT22;41687;-33.234;-60.334;2023-04-01T10:22:58;11.10;67.60
55771;DHT22;41687;-33.234;-60.334;2023-04-01T10:26:03;11.00;67.00
55771;DHT22;41687;-33.234;-60.334;2023-04-01T10:36:57;11.20;67.10
55771;DHT22;41687;-33.234;-60.334;2023-04-01T11:14:54;21.80;50.80
55771;DHT22;41687;-33.234;-60.334;2023-04-01T11:41:37;21.30;49.30
55771;DHT22;41687;-33.234;-60.334;2023-04-01T11:44:27;21.10;48.60
55771;DHT22;41687;-33.234;-60.334;2023-04-01T11:47:28;20.90;49.10
55771;DHT22;41687;-33.234;-60.334;2023-04-01T11:56:03;20.50;50.60
55771;DHT22;41687;-33.234;-60.334;2023-04-01T12:04:27;20.40;51.00
55771;DHT22;41687;-33.234;-60.334;2023-04-01T12:13:20;20.80;51.40
55771;DHT22;41687;-33.234;-60.334;2023-04-01T12:18:46;20.80;50.90
55771;DHT22;41687;-33.234;-60.334;2023-04-01T12:21:22;21.10;51.80
55771;DHT22;41687;-33.234;-60.334;2023-04-01T12:33:40;21.20;51.90
55771;DHT22;41687;-33.234;-60.334;2023-04-01T12:38:56;21.60;51.90
55771;DHT22;41687;-33.234;-60.334;2023-04-01T12:41:49;21.40;51.10
55771;DHT22;41687;-33.234;-60.334;2023-04-01T12:47:29;21.80;50.80
55771;DHT22;41687;-33.234;-60.334;2023-04-01T12:55:44;22.20;50.90
55771;DHT22;41687;-33.234;-60.334;2023-04-01T13:13:06;22.30;52.50
55771;DHT22;41687;-33.234;-60.334;2023-04-01T13:16:11;22.40;52.00
55771;DHT22;41687;-33.234;-60.334;2023-04-01T13:18:48;22.30;52.40
55771;DHT22;41687;-33.234;-60.334;2023-04-01T13:24:24;23.00;52.50
55771;DHT22;41687;-33.234;-60.334;2023-04-01T13:33:25;22.60;53.60
55771;DHT22;41687;-33.234;-60.334;2023-04-01T13:56:23;22.60;51.20
55771;DHT22;41687;-33.234;-60.334;2023-04-01T13:59:18;22.60;52.20
55771;DHT22;41687;-33.234;-60.334;2023-04-01T14:02:07;22.50;52.80
55771;DHT22;41687;-33.234;-60.334;2023-04-01T14:08:09;21.80;51.70
55771;DHT22;41687;-33.234;-60.334;2023-04-01T14:13:35;22.30;53.00
55771;DHT22;41687;-33.234;-60.334;2023-04-01T14:16:27;22.40;53.30
55771;DHT22;41687;-33.234;-60.334;2023-04-01T14:25:23;21.90;54.40
55771;DHT22;41687;-33.234;-60.334;2023-04-01T14:30:35;22.20;52.60
55771;DHT22;41687;-33.234;-60.334;2023-04-01T14:33:37;21.20;53.10
55771;DHT22;41687;-33.234;-60.334;2023-04-01T14:42:21;21.50;51.90
55771;DHT22;41687;-33.234;-60.334;2023-04-01T14:47:59;20.50;52.20
55771;DHT22;41687;-33.234;-60.334;2023-04-01T14:50:51;19.70;51.10
55771;DHT22;41687;-33.234;-60.334;2023-04-01T14:53:29;19.60;51.90
55771;DHT22;41687;-33.234;-60.334;2023-04-01T14:56:01;19.80;52.50
55771;DHT22;41687;-33.234;-60.334;2023-04-01T14:58:50;20.10;53.00
55771;DHT22;41687;-33.234;-60.334;2023-04-01T15:13:20;19.80;53.20
55771;DHT22;41687;-33.234;-60.334;2023-04-01T15:16:30;20.20;53.80
55771;DHT22;41687;-33.234;-60.334;2023-04-01T15:22:33;20.10;51.70
55771;DHT22;41687;-33.234;-60.334;2023-04-01T15:31:15;20.60;51.50
55771;DHT22;41687;-33.234;-60.334;2023-04-01T15:36:38;21.00;52.90
55771;DHT22;41687;-33.234;-60.334;2023-04-01T15:39:14;20.90;51.20
55771;DHT22;41687;-33.234;-60.334;2023-04-01T15:50:46;21.10;52.50
55771;DHT22;41687;-33.234;-60.334;2023-04-01T16:00:00;21.10;50.20
55771;DHT22;41687;-33.234;-60.334;2023-04-01T16:08:28;21.30;49.50
55771;DHT22;41687;-33.234;-60.334;2023-04-01T16:20:45;21.20;45.70
55771;DHT22;41687;-33.234;-60.334;2023-04-01T16:23:04;21.00;47.50
55771;DHT22;41687;-33.234;-60.334;2023-04-01T16:25:45;21.00;47.60
55771;DHT22;41687;-33.234;-60.334;2023-04-01T16:31:35;21.10;47.20
55771;DHT22;41687;-33.234;-60.334;2023-04-01T16:34:15;21.20;47.90
55771;DHT22;41687;-33.234;-60.334;2023-04-01T16:44:59;21.10;49.50
55771;DHT22;41687;-33.234;-60.334;2023-04-01T16:47:38;21.00;48.00
55771;DHT22;41687;-33.234;-60.334;2023-04-01T16:55:52;21.00;49.30
55771;DHT22;41687;-33.234;-60.334;2023-04-01T16:58:27;21.20;49.10
55771;DHT22;41687;-33.234;-60.334;2023-04-01T17:03:46;20.70;48.40
55771;DHT22;41687;-33.234;-60.334;2023-04-01T17:06:31;20.80;49.80
55771;DHT22;41687;-33.234;-60.334;2023-04-01T17:21:00;21.10;50.80
55771;DHT22;41687;-33.234;-60.334;2023-04-01T17:26:37;21.20;48.90
55771;DHT22;41687;-33.234;-60.334;2023-04-01T17:29:24;21.40;48.60
55771;DHT22;41687;-33.234;-60.334;2023-04-01T17:32:01;21.30;49.00
55771;DHT22;41687;-33.234;-60.334;2023-04-01T17:34:57;21.40;48.70
55771;DHT22;41687;-33.234;-60.334;2023-04-01T17:51:12;21.40;48.00
55771;DHT22;41687;-33.234;-60.334;2023-04-01T17:56:21;21.60;49.20
55771;DHT22;41687;-33.234;-60.334;2023-04-01T17:59:20;21.40;47.90
55771;DHT22;41687;-33.234;-60.334;2023-04-01T18:02:24;21.20;48.00
55771;DHT22;41687;-33.234;-60.334;2023-04-01T18:30:27;21.10;48.50
55771;DHT22;41687;-33.234;-60.334;2023-04-01T18:38:40;21.00;49.60
55771;DHT22;41687;-33.234;-60.334;2023-04-01T18:41:19;21.10;49.30
55771;DHT22;41687;-33.234;-60.334;2023-04-01T18:52:02;21.20;47.90
55771;DHT22;41687;-33.234;-60.334;2023-04-01T18:58:30;21.20;48.60
55771;DHT22;41687;-33.234;-60.334;2023-04-01T19:06:46;20.70;48.90
55771;DHT22;41687;-33.234;-60.334;2023-04-01T19:09:19;20.80;49.30
55771;DHT22;41687;-33.234;-60.334;2023-04-01T19:11:51;20.90;49.50
55771;DHT22;41687;-33.234;-60.334;2023-04-01T19:17:17;21.10;49.90
55771;DHT22;41687;-33.234;-60.334;2023-04-01T19:20:19;21.10;50.10
55771;DHT22;41687;-33.234;-60.334;2023-04-01T19:25:48;21.20;49.50
55771;DHT22;41687;-33.234;-60.334;2023-04-01T19:28:42;20.80;49.90
55771;DHT22;41687;-33.234;-60.334;2023-04-01T19:39:31;20.80;50.40
55771;DHT22;41687;-33.234;-60.334;2023-04-01T19:48:33;20.60;50.50
55771;DHT22;41687;-33.234;-60.334;2023-04-01T20:06:09;20.80;49.30
55771;DHT22;41687;-33.234;-60.334;2023-04-01T20:11:51;20.60;49.80
55771;DHT22;41687;-33.234;-60.334;2023-04-01T20:14:43;20.60;50.40
55771;DHT22;41687;-33.234;-60.334;2023-04-01T20:20:24;20.60;49.70
55771;DHT22;41687;-33.234;-60.334;2023-04-01T20:23:05;20.50;48.60
55771;DHT22;41687;-33.234;-60.334;2023-04-01T20:25:43;20.50;49.00
55771;DHT22;41687;-33.234;-60.334;2023-04-01T20:36:46;20.40;47.90
55771;DHT22;41687;-33.234;-60.334;2023-04-01T20:39:32;20.30;48.40
55771;DHT22;41687;-33.234;-60.334;2023-04-01T20:50:37;20.40;49.60
55771;DHT22;41687;-33.234;-60.334;2023-04-01T21:01:47;20.20;48.60
55771;DHT22;41687;-33.234;-60.334;2023-04-01T21:04:27;20.20;49.70
55771;DHT22;41687;-33.234;-60.334;2023-04-01T21:07:06;20.30;48.70
55771;DHT22;41687;-33.234;-60.334;2023-04-01T21:09:44;20.20;49.20
55771;DHT22;41687;-33.234;-60.334;2023-04-01T21:15:12;20.10;49.60
55771;DHT22;41687;-33.234;-60.334;2023-04-01T21:24:04;20.10;50.80
55771;DHT22;41687;-33.234;-60.334;2023-04-01T21:29:48;20.10;51.40
55771;DHT22;41687;-33.234;-60.334;2023-04-01T21:58:23;19.70;54.10
55771;DHT22;41687;-33.234;-60.334;2023-04-01T22:09:25;19.60;55.00
55771;DHT22;41687;-33.234;-60.334;2023-04-01T22:31:01;19.60;57.20
55771;DHT22;41687;-33.234;-60.334;2023-04-01T22:44:46;19.40;58.30
55771;DHT22;41687;-33.234;-60.334;2023-04-01T22:50:39;19.50;59.70
55771;DHT22;41687;-33.234;-60.334;2023-04-01T22:55:40;19.40;58.90
55771;DHT22;41687;-33.234;-60.334;2023-04-01T22:58:12;19.40;59.30
55771;DHT22;41687;-33.234;-60.334;2023-04-01T23:00:56;19.40;60.00
55771;DHT22;41687;-33.234;-60.334;2023-04-01T23:03:31;19.40;60.90
55771;DHT22;41687;-33.234;-60.334;2023-04-01T23:06:01;19.40;60.90
55771;DHT22;41687;-33.234;-60.334;2023-04-01T23:11:23;19.40;61.30
55771;DHT22;41687;-33.234;-60.334;2023-04-01T23:16:32;19.40;60.80
55771;DHT22;41687;-33.234;-60.334;2023-04-01T23:19:22;19.40;61.20
55771;DHT22;41687;-33.234;-60.334;2023-04-01T23:22:12;19.40;62.50
55771;DHT22;41687;-33.234;-60.334;2023-04-01T23:24:58;19.40;62.10
55771;DHT22;41687;-33.234;-60.334;2023-04-01T23:27:38;19.30;62.50
55771;DHT22;41687;-33.234;-60.334;2023-04-01T23:30:47;19.30;62.20
55771;DHT22;41687;-33.234;-60.334;2023-04-01T23:36:10;19.20;62.40
55771;DHT22;41687;-33.234;-60.334;2023-04-01T23:38:42;19.20;63.10
55771;DHT22;41687;-33.234;-60.334;2023-04-01T23:41:27;19.20;62.40
55771;DHT22;41687;-33.234;-60.334;2023-04-01T23:44:09;19.20;63.10
55771;DHT22;41687;-33.234;-60.334;2023-04-01T23:46:40;19.10;63.90
55771;DHT22;41687;-33.234;-60.334;2023-04-01T23:49:16;19.20;62.60
55771;DHT22;41687;-33.234;-60.334;2023-04-01T23:51:56;19.10;63.30
55771;DHT22;41687;-33.234;-60.334;2023-04-01T23:54:27;19.10;63.70
55771;DHT22;41687;-33.234;-60.334;2023-04-01T23:56:58;19.10;63.10
55771;DHT22;41687;-33.234;-60.334;2023-04-01T23:59:33;19.00;62.50
